sensor_id;sensor_type;location;lat;lon;timestamp;P1;durP1;ratioP1;P2;durP2;ratioP2
20114;SDS011;10218;42.874;25.320;2024-01-30T00:00:28;28.93;;;14.83;;
20114;SDS011;10218;42.874;25.320;2024-01-30T00:02:55;27.23;;;14.83;;
20114;SDS011;10218;42.874;25.320;2024-01-30T00:05:23;27.80;;;15.07;;
20114;SDS011;10218;42.874;25.320;2024-01-30T00:07:50;28.93;;;14.90;;
20114;SDS011;10218;42.874;25.320;2024-01-30T00:10:17;30.57;;;15.43;;
20114;SDS011;10218;42.874;25.320;2024-01-30T00:12:44;30.63;;;15.23;;
20114;SDS011;10218;42.874;25.320;2024-01-30T00:15:11;33.50;;;15.43;;
20114;SDS011;10218;42.874;25.320;2024-01-30T00:17:38;26.50;;;14.60;;
20114;SDS011;10218;42.874;25.320;2024-01-30T00:20:05;28.77;;;14.27;;
20114;SDS011;10218;42.874;25.320;2024-01-30T00:22:33;28.20;;;15.70;;
20114;SDS011;10218;42.874;25.320;2024-01-30T00:25:01;27.63;;;15.20;;
20114;SDS011;10218;42.874;25.320;2024-01-30T00:27:28;30.80;;;16.00;;
20114;SDS011;10218;42.874;25.320;2024-01-30T00:29:55;31.20;;;15.07;;
20114;SDS011;10218;42.874;25.320;2024-01-30T00:32:22;27.07;;;14.67;;
20114;SDS011;10218;42.874;25.320;2024-01-30T00:34:50;30.60;;;14.70;;
20114;SDS011;10218;42.874;25.320;2024-01-30T00:37:17;29.77;;;14.97;;
20114;SDS011;10218;42.874;25.320;2024-01-30T00:39:44;30.73;;;15.57;;
20114;SDS011;10218;42.874;25.320;2024-01-30T00:42:11;31.90;;;15.00;;
20114;SDS011;10218;42.874;25.320;2024-01-30T00:44:38;30.80;;;16.20;;
20114;SDS011;10218;42.874;25.320;2024-01-30T00:47:06;30.30;;;16.40;;
20114;SDS011;10218;42.874;25.320;2024-01-30T00:49:33;34.27;;;17.23;;
20114;SDS011;10218;42.874;25.320;2024-01-30T00:52:00;35.23;;;16.60;;
20114;SDS011;10218;42.874;25.320;2024-01-30T00:54:27;34.90;;;17.27;;
20114;SDS011;10218;42.874;25.320;2024-01-30T00:56:54;31.20;;;16.30;;
20114;SDS011;10218;42.874;25.320;2024-01-30T00:59:21;30.27;;;16.00;;
20114;SDS011;10218;42.874;25.320;2024-01-30T01:01:48;33.60;;;17.43;;
20114;SDS011;10218;42.874;25.320;2024-01-30T01:04:16;32.23;;;16.50;;
20114;SDS011;10218;42.874;25.320;2024-01-30T01:06:44;34.17;;;17.63;;
20114;SDS011;10218;42.874;25.320;2024-01-30T01:09:11;36.13;;;17.97;;
20114;SDS011;10218;42.874;25.320;2024-01-30T01:11:38;32.70;;;16.90;;
20114;SDS011;10218;42.874;25.320;2024-01-30T01:14:06;33.60;;;17.50;;
20114;SDS011;10218;42.874;25.320;2024-01-30T01:16:33;34.10;;;17.47;;
20114;SDS011;10218;42.874;25.320;2024-01-30T01:19:01;35.93;;;17.80;;
20114;SDS011;10218;42.874;25.320;2024-01-30T01:21:28;37.50;;;18.43;;
20114;SDS011;10218;42.874;25.320;2024-01-30T01:23:55;36.67;;;18.00;;
20114;SDS011;10218;42.874;25.320;2024-01-30T01:26:22;36.23;;;18.47;;
20114;SDS011;10218;42.874;25.320;2024-01-30T01:28:49;34.30;;;17.70;;
20114;SDS011;10218;42.874;25.320;2024-01-30T01:31:16;35.63;;;17.13;;
20114;SDS011;10218;42.874;25.320;2024-01-30T01:33:44;38.23;;;17.83;;
20114;SDS011;10218;42.874;25.320;2024-01-30T01:36:11;36.33;;;18.23;;
20114;SDS011;10218;42.874;25.320;2024-01-30T01:38:40;37.03;;;17.97;;
20114;SDS011;10218;42.874;25.320;2024-01-30T01:41:07;33.97;;;17.97;;
20114;SDS011;10218;42.874;25.320;2024-01-30T01:43:34;33.60;;;17.33;;
20114;SDS011;10218;42.874;25.320;2024-01-30T01:46:02;33.60;;;17.23;;
20114;SDS011;10218;42.874;25.320;2024-01-30T01:48:29;31.73;;;16.67;;
20114;SDS011;10218;42.874;25.320;2024-01-30T01:50:56;35.50;;;18.60;;
20114;SDS011;10218;42.874;25.320;2024-01-30T01:53:24;37.33;;;18.43;;
20114;SDS011;10218;42.874;25.320;2024-01-30T01:55:52;34.23;;;17.30;;
20114;SDS011;10218;42.874;25.320;2024-01-30T01:58:20;35.50;;;18.27;;
20114;SDS011;10218;42.874;25.320;2024-01-30T02:00:49;35.83;;;18.57;;
20114;SDS011;10218;42.874;25.320;2024-01-30T02:03:18;34.17;;;17.77;;
20114;SDS011;10218;42.874;25.320;2024-01-30T02:05:48;31.27;;;16.10;;
20114;SDS011;10218;42.874;25.320;2024-01-30T02:08:17;31.23;;;16.40;;
20114;SDS011;10218;42.874;25.320;2024-01-30T02:10:44;33.03;;;17.20;;
20114;SDS011;10218;42.874;25.320;2024-01-30T02:13:11;31.97;;;17.03;;
20114;SDS011;10218;42.874;25.320;2024-01-30T02:15:39;31.50;;;17.40;;
20114;SDS011;10218;42.874;25.320;2024-01-30T02:18:06;35.30;;;17.67;;
20114;SDS011;10218;42.874;25.320;2024-01-30T02:20:34;35.63;;;17.77;;
20114;SDS011;10218;42.874;25.320;2024-01-30T02:23:02;35.27;;;17.43;;
20114;SDS011;10218;42.874;25.320;2024-01-30T02:25:30;33.93;;;17.73;;
20114;SDS011;10218;42.874;25.320;2024-01-30T02:28:00;37.57;;;17.93;;
20114;SDS011;10218;42.874;25.320;2024-01-30T02:30:27;32.57;;;17.40;;
20114;SDS011;10218;42.874;25.320;2024-01-30T02:32:54;35.00;;;18.27;;
20114;SDS011;10218;42.874;25.320;2024-01-30T02:35:21;30.23;;;16.17;;
20114;SDS011;10218;42.874;25.320;2024-01-30T02:37:48;31.57;;;17.00;;
20114;SDS011;10218;42.874;25.320;2024-01-30T02:40:16;33.00;;;16.97;;
20114;SDS011;10218;42.874;25.320;2024-01-30T02:42:42;29.00;;;16.17;;
20114;SDS011;10218;42.874;25.320;2024-01-30T02:45:10;28.80;;;15.80;;
20114;SDS011;10218;42.874;25.320;2024-01-30T02:47:38;32.63;;;15.63;;
20114;SDS011;10218;42.874;25.320;2024-01-30T02:50:06;29.60;;;15.50;;
20114;SDS011;10218;42.874;25.320;2024-01-30T02:52:34;28.23;;;16.00;;
20114;SDS011;10218;42.874;25.320;2024-01-30T02:55:01;33.47;;;16.43;;
20114;SDS011;10218;42.874;25.320;2024-01-30T02:57:29;33.33;;;16.53;;
20114;SDS011;10218;42.874;25.320;2024-01-30T02:59:56;30.97;;;16.03;;
20114;SDS011;10218;42.874;25.320;2024-01-30T03:02:23;26.93;;;14.77;;
20114;SDS011;10218;42.874;25.320;2024-01-30T03:04:50;29.77;;;15.13;;
20114;SDS011;10218;42.874;25.320;2024-01-30T03:07:17;27.07;;;14.37;;
20114;SDS011;10218;42.874;25.320;2024-01-30T03:09:45;28.77;;;15.60;;
20114;SDS011;10218;42.874;25.320;2024-01-30T03:12:12;30.53;;;16.23;;
20114;SDS011;10218;42.874;25.320;2024-01-30T03:14:39;29.50;;;15.90;;
20114;SDS011;10218;42.874;25.320;2024-01-30T03:17:06;28.83;;;15.67;;
20114;SDS011;10218;42.874;25.320;2024-01-30T03:19:34;30.80;;;16.40;;
20114;SDS011;10218;42.874;25.320;2024-01-30T03:22:01;32.73;;;16.13;;
20114;SDS011;10218;42.874;25.320;2024-01-30T03:24:28;34.00;;;16.93;;
20114;SDS011;10218;42.874;25.320;2024-01-30T03:26:55;35.43;;;18.87;;
20114;SDS011;10218;42.874;25.320;2024-01-30T03:29:22;32.93;;;17.67;;
20114;SDS011;10218;42.874;25.320;2024-01-30T03:31:50;32.53;;;17.37;;
20114;SDS011;10218;42.874;25.320;2024-01-30T03:34:16;32.33;;;16.80;;
20114;SDS011;10218;42.874;25.320;2024-01-30T03:36:43;35.03;;;18.30;;
20114;SDS011;10218;42.874;25.320;2024-01-30T03:39:11;33.60;;;17.63;;
20114;SDS011;10218;42.874;25.320;2024-01-30T03:41:38;35.13;;;17.97;;
20114;SDS011;10218;42.874;25.320;2024-01-30T03:44:08;37.90;;;18.77;;
20114;SDS011;10218;42.874;25.320;2024-01-30T03:46:36;37.67;;;18.63;;
20114;SDS011;10218;42.874;25.320;2024-01-30T03:49:03;39.67;;;18.83;;
20114;SDS011;10218;42.874;25.320;2024-01-30T03:51:30;37.90;;;18.47;;
20114;SDS011;10218;42.874;25.320;2024-01-30T03:53:57;35.27;;;18.73;;
20114;SDS011;10218;42.874;25.320;2024-01-30T03:56:24;41.73;;;18.83;;
20114;SDS011;10218;42.874;25.320;2024-01-30T03:58:52;37.90;;;18.97;;
20114;SDS011;10218;42.874;25.320;2024-01-30T04:01:19;39.47;;;19.03;;
20114;SDS011;10218;42.874;25.320;2024-01-30T04:03:47;38.47;;;18.23;;
20114;SDS011;10218;42.874;25.320;2024-01-30T04:06:14;39.93;;;19.00;;
20114;SDS011;10218;42.874;25.320;2024-01-30T04:08:41;40.40;;;20.63;;
20114;SDS011;10218;42.874;25.320;2024-01-30T04:11:08;44.83;;;20.47;;
20114;SDS011;10218;42.874;25.320;2024-01-30T04:13:35;43.63;;;20.97;;
20114;SDS011;10218;42.874;25.320;2024-01-30T04:16:02;45.93;;;23.60;;
20114;SDS011;10218;42.874;25.320;2024-01-30T04:18:30;38.43;;;20.17;;
20114;SDS011;10218;42.874;25.320;2024-01-30T04:20:57;36.40;;;19.23;;
20114;SDS011;10218;42.874;25.320;2024-01-30T04:23:24;40.17;;;18.57;;
20114;SDS011;10218;42.874;25.320;2024-01-30T04:25:51;40.27;;;19.57;;
20114;SDS011;10218;42.874;25.320;2024-01-30T04:28:18;40.67;;;19.33;;
20114;SDS011;10218;42.874;25.320;2024-01-30T04:30:45;43.03;;;20.43;;
20114;SDS011;10218;42.874;25.320;2024-01-30T04:33:12;37.43;;;17.80;;
20114;SDS011;10218;42.874;25.320;2024-01-30T04:35:40;36.30;;;18.10;;
20114;SDS011;10218;42.874;25.320;2024-01-30T04:38:06;34.30;;;17.93;;
20114;SDS011;10218;42.874;25.320;2024-01-30T04:40:34;37.97;;;18.07;;
20114;SDS011;10218;42.874;25.320;2024-01-30T04:43:01;34.87;;;16.80;;
20114;SDS011;10218;42.874;25.320;2024-01-30T04:45:28;33.33;;;17.47;;
20114;SDS011;10218;42.874;25.320;2024-01-30T04:47:55;35.37;;;18.00;;
20114;SDS011;10218;42.874;25.320;2024-01-30T04:50:22;35.93;;;18.50;;
20114;SDS011;10218;42.874;25.320;2024-01-30T04:52:50;38.13;;;18.10;;
20114;SDS011;10218;42.874;25.320;2024-01-30T04:55:17;38.80;;;19.90;;
20114;SDS011;10218;42.874;25.320;2024-01-30T04:57:45;37.37;;;19.23;;
20114;SDS011;10218;42.874;25.320;2024-01-30T05:00:12;40.53;;;19.20;;
20114;SDS011;10218;42.874;25.320;2024-01-30T05:02:39;36.23;;;18.40;;
20114;SDS011;10218;42.874;25.320;2024-01-30T05:05:06;39.63;;;18.70;;
20114;SDS011;10218;42.874;25.320;2024-01-30T05:07:34;40.67;;;21.00;;
20114;SDS011;10218;42.874;25.320;2024-01-30T05:10:01;46.33;;;21.20;;
20114;SDS011;10218;42.874;25.320;2024-01-30T05:12:30;43.60;;;20.97;;
20114;SDS011;10218;42.874;25.320;2024-01-30T05:14:57;38.57;;;20.33;;
20114;SDS011;10218;42.874;25.320;2024-01-30T05:17:24;39.70;;;18.37;;
20114;SDS011;10218;42.874;25.320;2024-01-30T05:19:52;38.27;;;20.03;;
20114;SDS011;10218;42.874;25.320;2024-01-30T05:22:19;40.47;;;20.40;;
20114;SDS011;10218;42.874;25.320;2024-01-30T05:24:46;36.03;;;18.83;;
20114;SDS011;10218;42.874;25.320;2024-01-30T05:27:13;37.70;;;18.93;;
20114;SDS011;10218;42.874;25.320;2024-01-30T05:29:40;42.10;;;20.90;;
20114;SDS011;10218;42.874;25.320;2024-01-30T05:32:08;42.23;;;20.07;;
20114;SDS011;10218;42.874;25.320;2024-01-30T05:34:35;39.00;;;19.87;;
20114;SDS011;10218;42.874;25.320;2024-01-30T05:37:02;41.40;;;20.40;;
20114;SDS011;10218;42.874;25.320;2024-01-30T05:39:30;46.80;;;22.30;;
20114;SDS011;10218;42.874;25.320;2024-01-30T05:41:59;43.23;;;22.77;;
20114;SDS011;10218;42.874;25.320;2024-01-30T05:44:26;38.83;;;20.20;;
20114;SDS011;10218;42.874;25.320;2024-01-30T05:46:54;35.93;;;19.87;;
20114;SDS011;10218;42.874;25.320;2024-01-30T05:49:21;37.97;;;20.40;;
20114;SDS011;10218;42.874;25.320;2024-01-30T05:51:48;40.93;;;19.77;;
20114;SDS011;10218;42.874;25.320;2024-01-30T05:54:15;43.37;;;21.67;;
20114;SDS011;10218;42.874;25.320;2024-01-30T05:56:43;40.93;;;21.97;;
20114;SDS011;10218;42.874;25.320;2024-01-30T05:59:10;45.07;;;22.40;;
20114;SDS011;10218;42.874;25.320;2024-01-30T06:01:46;40.90;;;20.90;;
20114;SDS011;10218;42.874;25.320;2024-01-30T06:04:14;37.50;;;19.47;;
20114;SDS011;10218;42.874;25.320;2024-01-30T06:06:41;34.50;;;18.43;;
20114;SDS011;10218;42.874;25.320;2024-01-30T06:09:08;36.40;;;19.90;;
20114;SDS011;10218;42.874;25.320;2024-01-30T06:11:36;41.53;;;20.47;;
20114;SDS011;10218;42.874;25.320;2024-01-30T06:14:03;44.63;;;20.87;;
20114;SDS011;10218;42.874;25.320;2024-01-30T06:16:30;38.73;;;19.93;;
20114;SDS011;10218;42.874;25.320;2024-01-30T06:18:57;41.43;;;20.50;;
20114;SDS011;10218;42.874;25.320;2024-01-30T06:21:24;38.17;;;19.03;;
20114;SDS011;10218;42.874;25.320;2024-01-30T06:23:51;40.23;;;20.23;;
20114;SDS011;10218;42.874;25.320;2024-01-30T06:26:19;41.87;;;20.47;;
20114;SDS011;10218;42.874;25.320;2024-01-30T06:28:45;39.87;;;19.60;;
20114;SDS011;10218;42.874;25.320;2024-01-30T06:31:12;38.27;;;18.87;;
20114;SDS011;10218;42.874;25.320;2024-01-30T06:33:40;38.80;;;20.90;;
20114;SDS011;10218;42.874;25.320;2024-01-30T06:36:08;39.80;;;20.30;;
20114;SDS011;10218;42.874;25.320;2024-01-30T06:38:35;40.97;;;19.93;;
20114;SDS011;10218;42.874;25.320;2024-01-30T06:41:03;35.77;;;19.37;;
20114;SDS011;10218;42.874;25.320;2024-01-30T06:43:30;36.47;;;18.60;;
20114;SDS011;10218;42.874;25.320;2024-01-30T06:45:57;41.07;;;22.03;;
20114;SDS011;10218;42.874;25.320;2024-01-30T06:48:25;37.50;;;20.87;;
20114;SDS011;10218;42.874;25.320;2024-01-30T06:50:55;37.47;;;19.77;;
20114;SDS011;10218;42.874;25.320;2024-01-30T06:53:24;40.50;;;19.93;;
20114;SDS011;10218;42.874;25.320;2024-01-30T06:55:53;33.50;;;18.33;;
20114;SDS011;10218;42.874;25.320;2024-01-30T06:58:20;35.60;;;19.00;;
20114;SDS011;10218;42.874;25.320;2024-01-30T07:00:47;39.10;;;19.37;;
20114;SDS011;10218;42.874;25.320;2024-01-30T07:03:14;36.77;;;19.40;;
20114;SDS011;10218;42.874;25.320;2024-01-30T07:05:41;37.70;;;18.83;;
20114;SDS011;10218;42.874;25.320;2024-01-30T07:08:09;42.07;;;20.70;;
20114;SDS011;10218;42.874;25.320;2024-01-30T07:10:36;40.47;;;20.93;;
20114;SDS011;10218;42.874;25.320;2024-01-30T07:13:03;38.57;;;19.50;;
20114;SDS011;10218;42.874;25.320;2024-01-30T07:15:32;35.57;;;19.13;;
20114;SDS011;10218;42.874;25.320;2024-01-30T07:17:59;39.40;;;19.77;;
20114;SDS011;10218;42.874;25.320;2024-01-30T07:20:26;42.43;;;19.43;;
20114;SDS011;10218;42.874;25.320;2024-01-30T07:22:53;36.03;;;18.20;;
20114;SDS011;10218;42.874;25.320;2024-01-30T07:25:21;35.07;;;17.33;;
20114;SDS011;10218;42.874;25.320;2024-01-30T07:27:48;32.20;;;16.63;;
20114;SDS011;10218;42.874;25.320;2024-01-30T07:30:15;32.80;;;18.20;;
20114;SDS011;10218;42.874;25.320;2024-01-30T07:32:44;36.23;;;18.80;;
20114;SDS011;10218;42.874;25.320;2024-01-30T07:35:11;37.93;;;20.80;;
20114;SDS011;10218;42.874;25.320;2024-01-30T07:37:38;41.00;;;19.93;;
20114;SDS011;10218;42.874;25.320;2024-01-30T07:40:06;35.67;;;19.07;;
20114;SDS011;10218;42.874;25.320;2024-01-30T07:42:33;33.63;;;18.67;;
20114;SDS011;10218;42.874;25.320;2024-01-30T07:45:00;37.00;;;19.47;;
20114;SDS011;10218;42.874;25.320;2024-01-30T07:47:28;35.60;;;18.07;;
20114;SDS011;10218;42.874;25.320;2024-01-30T07:49:55;33.73;;;17.73;;
20114;SDS011;10218;42.874;25.320;2024-01-30T07:52:22;35.37;;;17.83;;
20114;SDS011;10218;42.874;25.320;2024-01-30T07:54:50;37.97;;;18.97;;
20114;SDS011;10218;42.874;25.320;2024-01-30T07:57:17;31.83;;;18.27;;
20114;SDS011;10218;42.874;25.320;2024-01-30T07:59:45;48.13;;;25.03;;
20114;SDS011;10218;42.874;25.320;2024-01-30T08:02:12;45.97;;;24.73;;
20114;SDS011;10218;42.874;25.320;2024-01-30T08:04:40;42.37;;;20.60;;
20114;SDS011;10218;42.874;25.320;2024-01-30T08:07:07;33.47;;;17.23;;
20114;SDS011;10218;42.874;25.320;2024-01-30T08:09:34;44.57;;;20.07;;
20114;SDS011;10218;42.874;25.320;2024-01-30T08:12:02;81.83;;;41.80;;
20114;SDS011;10218;42.874;25.320;2024-01-30T08:14:29;44.87;;;23.60;;
20114;SDS011;10218;42.874;25.320;2024-01-30T08:16:56;38.80;;;18.57;;
20114;SDS011;10218;42.874;25.320;2024-01-30T08:19:23;39.63;;;19.83;;
20114;SDS011;10218;42.874;25.320;2024-01-30T08:21:50;36.73;;;18.13;;
20114;SDS011;10218;42.874;25.320;2024-01-30T08:24:17;34.17;;;16.97;;
20114;SDS011;10218;42.874;25.320;2024-01-30T08:26:45;32.37;;;16.07;;
20114;SDS011;10218;42.874;25.320;2024-01-30T08:29:12;37.07;;;18.13;;
20114;SDS011;10218;42.874;25.320;2024-01-30T08:31:39;35.27;;;17.10;;
20114;SDS011;10218;42.874;25.320;2024-01-30T08:34:06;35.33;;;18.17;;
20114;SDS011;10218;42.874;25.320;2024-01-30T08:36:36;34.27;;;17.27;;
20114;SDS011;10218;42.874;25.320;2024-01-30T08:39:03;31.33;;;16.63;;
20114;SDS011;10218;42.874;25.320;2024-01-30T08:41:32;31.20;;;15.73;;
20114;SDS011;10218;42.874;25.320;2024-01-30T08:43:59;32.30;;;16.63;;
20114;SDS011;10218;42.874;25.320;2024-01-30T08:46:26;30.57;;;16.67;;
20114;SDS011;10218;42.874;25.320;2024-01-30T08:48:53;33.47;;;15.37;;
20114;SDS011;10218;42.874;25.320;2024-01-30T08:51:20;32.23;;;16.23;;
20114;SDS011;10218;42.874;25.320;2024-01-30T08:53:47;30.00;;;15.30;;
20114;SDS011;10218;42.874;25.320;2024-01-30T08:56:14;30.03;;;16.57;;
20114;SDS011;10218;42.874;25.320;2024-01-30T08:58:43;37.80;;;18.87;;
20114;SDS011;10218;42.874;25.320;2024-01-30T09:01:09;34.23;;;17.30;;
20114;SDS011;10218;42.874;25.320;2024-01-30T09:03:37;31.67;;;16.90;;
20114;SDS011;10218;42.874;25.320;2024-01-30T09:06:10;40.17;;;18.10;;
20114;SDS011;10218;42.874;25.320;2024-01-30T09:08:37;39.50;;;17.70;;
20114;SDS011;10218;42.874;25.320;2024-01-30T09:11:09;37.43;;;17.50;;
20114;SDS011;10218;42.874;25.320;2024-01-30T09:13:37;29.80;;;16.53;;
20114;SDS011;10218;42.874;25.320;2024-01-30T09:16:05;46.03;;;24.43;;
20114;SDS011;10218;42.874;25.320;2024-01-30T09:18:32;38.07;;;19.57;;
20114;SDS011;10218;42.874;25.320;2024-01-30T09:20:59;36.00;;;18.63;;
20114;SDS011;10218;42.874;25.320;2024-01-30T09:23:27;33.97;;;17.83;;
20114;SDS011;10218;42.874;25.320;2024-01-30T09:25:55;36.47;;;19.57;;
20114;SDS011;10218;42.874;25.320;2024-01-30T09:28:22;36.93;;;19.03;;
20114;SDS011;10218;42.874;25.320;2024-01-30T09:30:51;35.93;;;17.20;;
20114;SDS011;10218;42.874;25.320;2024-01-30T09:33:18;31.47;;;17.33;;
20114;SDS011;10218;42.874;25.320;2024-01-30T09:35:44;33.10;;;17.37;;
20114;SDS011;10218;42.874;25.320;2024-01-30T09:38:12;33.20;;;17.40;;
20114;SDS011;10218;42.874;25.320;2024-01-30T09:40:39;33.93;;;16.07;;
20114;SDS011;10218;42.874;25.320;2024-01-30T09:43:08;33.90;;;17.90;;
20114;SDS011;10218;42.874;25.320;2024-01-30T09:45:42;40.07;;;19.67;;
20114;SDS011;10218;42.874;25.320;2024-01-30T09:48:11;39.87;;;19.90;;
20114;SDS011;10218;42.874;25.320;2024-01-30T09:50:38;32.53;;;17.90;;
20114;SDS011;10218;42.874;25.320;2024-01-30T09:53:07;34.30;;;17.77;;
20114;SDS011;10218;42.874;25.320;2024-01-30T09:55:35;33.80;;;17.23;;
20114;SDS011;10218;42.874;25.320;2024-01-30T09:58:03;34.10;;;17.70;;
20114;SDS011;10218;42.874;25.320;2024-01-30T10:00:30;37.20;;;17.90;;
20114;SDS011;10218;42.874;25.320;2024-01-30T10:02:58;33.00;;;17.17;;
20114;SDS011;10218;42.874;25.320;2024-01-30T10:05:27;34.57;;;18.60;;
20114;SDS011;10218;42.874;25.320;2024-01-30T10:07:57;39.93;;;19.40;;
20114;SDS011;10218;42.874;25.320;2024-01-30T10:10:25;35.23;;;18.77;;
20114;SDS011;10218;42.874;25.320;2024-01-30T10:12:52;35.50;;;17.33;;
20114;SDS011;10218;42.874;25.320;2024-01-30T10:15:20;37.10;;;18.30;;
20114;SDS011;10218;42.874;25.320;2024-01-30T10:17:47;36.50;;;17.83;;
20114;SDS011;10218;42.874;25.320;2024-01-30T10:20:14;38.73;;;19.23;;
20114;SDS011;10218;42.874;25.320;2024-01-30T10:22:41;37.93;;;19.20;;
20114;SDS011;10218;42.874;25.320;2024-01-30T10:25:12;40.10;;;18.40;;
20114;SDS011;10218;42.874;25.320;2024-01-30T10:27:39;40.67;;;18.87;;
20114;SDS011;10218;42.874;25.320;2024-01-30T10:30:07;33.90;;;17.50;;
20114;SDS011;10218;42.874;25.320;2024-01-30T10:32:35;34.47;;;17.60;;
20114;SDS011;10218;42.874;25.320;2024-01-30T10:35:02;38.27;;;19.43;;
20114;SDS011;10218;42.874;25.320;2024-01-30T10:37:30;38.20;;;16.63;;
20114;SDS011;10218;42.874;25.320;2024-01-30T10:40:01;36.53;;;17.97;;
20114;SDS011;10218;42.874;25.320;2024-01-30T10:42:32;26.47;;;14.63;;
20114;SDS011;10218;42.874;25.320;2024-01-30T10:47:34;29.17;;;15.70;;
20114;SDS011;10218;42.874;25.320;2024-01-30T10:50:05;31.43;;;15.27;;
20114;SDS011;10218;42.874;25.320;2024-01-30T10:52:34;25.70;;;14.07;;
20114;SDS011;10218;42.874;25.320;2024-01-30T10:55:01;30.40;;;15.93;;
20114;SDS011;10218;42.874;25.320;2024-01-30T10:57:33;33.00;;;15.37;;
20114;SDS011;10218;42.874;25.320;2024-01-30T11:00:04;22.67;;;12.80;;
20114;SDS011;10218;42.874;25.320;2024-01-30T11:02:41;29.33;;;14.67;;
20114;SDS011;10218;42.874;25.320;2024-01-30T11:05:10;26.07;;;13.23;;
20114;SDS011;10218;42.874;25.320;2024-01-30T11:07:41;18.23;;;9.93;;
20114;SDS011;10218;42.874;25.320;2024-01-30T11:10:08;20.67;;;10.93;;
20114;SDS011;10218;42.874;25.320;2024-01-30T11:12:39;19.80;;;11.63;;
20114;SDS011;10218;42.874;25.320;2024-01-30T11:20:27;19.40;;;10.93;;
20114;SDS011;10218;42.874;25.320;2024-01-30T11:22:58;19.53;;;10.37;;
20114;SDS011;10218;42.874;25.320;2024-01-30T11:25:26;20.97;;;11.17;;
20114;SDS011;10218;42.874;25.320;2024-01-30T11:27:54;22.83;;;11.47;;
20114;SDS011;10218;42.874;25.320;2024-01-30T11:30:25;26.37;;;12.73;;
20114;SDS011;10218;42.874;25.320;2024-01-30T11:32:57;23.23;;;12.20;;
20114;SDS011;10218;42.874;25.320;2024-01-30T11:35:47;20.30;;;10.20;;
20114;SDS011;10218;42.874;25.320;2024-01-30T11:38:15;22.33;;;11.10;;
20114;SDS011;10218;42.874;25.320;2024-01-30T11:40:42;22.40;;;11.23;;
20114;SDS011;10218;42.874;25.320;2024-01-30T11:43:10;17.13;;;9.30;;
20114;SDS011;10218;42.874;25.320;2024-01-30T11:45:38;19.50;;;10.47;;
20114;SDS011;10218;42.874;25.320;2024-01-30T11:48:06;18.27;;;10.33;;
20114;SDS011;10218;42.874;25.320;2024-01-30T11:50:34;15.47;;;9.33;;
20114;SDS011;10218;42.874;25.320;2024-01-30T11:53:01;20.47;;;10.43;;
20114;SDS011;10218;42.874;25.320;2024-01-30T11:55:29;19.73;;;9.47;;
20114;SDS011;10218;42.874;25.320;2024-01-30T11:57:59;17.60;;;9.60;;
20114;SDS011;10218;42.874;25.320;2024-01-30T12:00:26;20.77;;;9.80;;
20114;SDS011;10218;42.874;25.320;2024-01-30T12:02:54;19.73;;;9.33;;
20114;SDS011;10218;42.874;25.320;2024-01-30T12:05:25;17.63;;;8.53;;
20114;SDS011;10218;42.874;25.320;2024-01-30T12:07:52;19.10;;;8.93;;
20114;SDS011;10218;42.874;25.320;2024-01-30T12:10:20;21.10;;;9.27;;
20114;SDS011;10218;42.874;25.320;2024-01-30T12:12:49;23.10;;;9.87;;
20114;SDS011;10218;42.874;25.320;2024-01-30T12:15:21;23.17;;;10.13;;
20114;SDS011;10218;42.874;25.320;2024-01-30T12:17:48;18.07;;;9.43;;
20114;SDS011;10218;42.874;25.320;2024-01-30T12:20:19;16.00;;;8.83;;
20114;SDS011;10218;42.874;25.320;2024-01-30T12:22:48;16.33;;;9.40;;
20114;SDS011;10218;42.874;25.320;2024-01-30T12:25:17;18.80;;;10.63;;
20114;SDS011;10218;42.874;25.320;2024-01-30T12:27:47;18.57;;;9.63;;
20114;SDS011;10218;42.874;25.320;2024-01-30T12:30:18;19.43;;;9.67;;
20114;SDS011;10218;42.874;25.320;2024-01-30T12:32:49;17.93;;;9.47;;
20114;SDS011;10218;42.874;25.320;2024-01-30T12:35:18;18.20;;;10.47;;
20114;SDS011;10218;42.874;25.320;2024-01-30T12:37:47;17.37;;;8.93;;
20114;SDS011;10218;42.874;25.320;2024-01-30T12:40:15;18.43;;;9.80;;
20114;SDS011;10218;42.874;25.320;2024-01-30T12:42:45;18.03;;;10.17;;
20114;SDS011;10218;42.874;25.320;2024-01-30T12:45:15;23.63;;;11.23;;
20114;SDS011;10218;42.874;25.320;2024-01-30T12:47:42;16.60;;;9.47;;
20114;SDS011;10218;42.874;25.320;2024-01-30T12:50:10;18.03;;;10.13;;
20114;SDS011;10218;42.874;25.320;2024-01-30T12:52:39;20.80;;;10.70;;
20114;SDS011;10218;42.874;25.320;2024-01-30T12:55:06;14.03;;;7.60;;
20114;SDS011;10218;42.874;25.320;2024-01-30T12:57:33;15.43;;;9.50;;
20114;SDS011;10218;42.874;25.320;2024-01-30T13:00:00;22.13;;;11.33;;
20114;SDS011;10218;42.874;25.320;2024-01-30T13:02:27;19.27;;;10.60;;
20114;SDS011;10218;42.874;25.320;2024-01-30T13:05:04;21.70;;;10.57;;
20114;SDS011;10218;42.874;25.320;2024-01-30T13:07:32;24.17;;;12.03;;
20114;SDS011;10218;42.874;25.320;2024-01-30T13:10:00;23.33;;;12.23;;
20114;SDS011;10218;42.874;25.320;2024-01-30T13:12:30;23.27;;;11.43;;
20114;SDS011;10218;42.874;25.320;2024-01-30T13:15:01;21.87;;;10.80;;
20114;SDS011;10218;42.874;25.320;2024-01-30T13:17:30;18.63;;;10.80;;
20114;SDS011;10218;42.874;25.320;2024-01-30T13:19:57;20.20;;;11.27;;
20114;SDS011;10218;42.874;25.320;2024-01-30T13:22:27;21.47;;;11.47;;
20114;SDS011;10218;42.874;25.320;2024-01-30T13:24:54;22.07;;;11.20;;
20114;SDS011;10218;42.874;25.320;2024-01-30T13:27:22;22.13;;;11.33;;
20114;SDS011;10218;42.874;25.320;2024-01-30T13:29:49;27.20;;;11.70;;
20114;SDS011;10218;42.874;25.320;2024-01-30T13:32:16;22.33;;;11.30;;
20114;SDS011;10218;42.874;25.320;2024-01-30T13:34:43;17.27;;;9.17;;
20114;SDS011;10218;42.874;25.320;2024-01-30T13:37:10;18.73;;;10.77;;
20114;SDS011;10218;42.874;25.320;2024-01-30T13:39:37;17.83;;;9.47;;
20114;SDS011;10218;42.874;25.320;2024-01-30T13:42:06;18.87;;;9.67;;
20114;SDS011;10218;42.874;25.320;2024-01-30T13:44:34;18.63;;;9.67;;
20114;SDS011;10218;42.874;25.320;2024-01-30T13:47:02;16.93;;;9.90;;
20114;SDS011;10218;42.874;25.320;2024-01-30T13:49:29;20.23;;;10.03;;
20114;SDS011;10218;42.874;25.320;2024-01-30T13:51:56;22.40;;;12.17;;
20114;SDS011;10218;42.874;25.320;2024-01-30T13:54:24;17.23;;;9.83;;
20114;SDS011;10218;42.874;25.320;2024-01-30T13:56:52;17.17;;;10.17;;
20114;SDS011;10218;42.874;25.320;2024-01-30T13:59:19;18.67;;;10.37;;
20114;SDS011;10218;42.874;25.320;2024-01-30T14:01:50;23.47;;;11.10;;
20114;SDS011;10218;42.874;25.320;2024-01-30T14:04:20;16.90;;;9.97;;
20114;SDS011;10218;42.874;25.320;2024-01-30T14:06:48;18.77;;;10.77;;
20114;SDS011;10218;42.874;25.320;2024-01-30T14:09:15;22.17;;;11.73;;
20114;SDS011;10218;42.874;25.320;2024-01-30T14:11:43;22.70;;;10.57;;
20114;SDS011;10218;42.874;25.320;2024-01-30T14:14:10;25.37;;;11.43;;
20114;SDS011;10218;42.874;25.320;2024-01-30T14:16:37;23.83;;;13.20;;
20114;SDS011;10218;42.874;25.320;2024-01-30T14:19:05;29.20;;;14.00;;
20114;SDS011;10218;42.874;25.320;2024-01-30T14:21:32;24.33;;;12.90;;